sensor_id;sensor_type;location;lat;lon;timestamp;P1;durP1;ratioP1;P2;durP2;ratioP2
7493;SDS011;3788;49.902;8.590;2022-10-31T00:01:18;5.77;;;4.60;;
7493;SDS011;3788;49.902;8.590;2022-10-31T00:03:46;4.67;;;4.03;;
7493;SDS011;3788;49.902;8.590;2022-10-31T00:06:15;5.27;;;4.53;;
7493;SDS011;3788;49.902;8.590;2022-10-31T00:08:43;4.93;;;4.43;;
7493;SDS011;3788;49.902;8.590;2022-10-31T00:11:10;5.90;;;4.50;;
7493;SDS011;3788;49.902;8.590;2022-10-31T00:13:36;4.40;;;4.00;;
7493;SDS011;3788;49.902;8.590;2022-10-31T00:16:04;4.40;;;4.00;;
7493;SDS011;3788;49.902;8.590;2022-10-31T00:18:31;6.87;;;4.00;;
7493;SDS011;3788;49.902;8.590;2022-10-31T00:20:58;4.70;;;3.77;;
7493;SDS011;3788;49.902;8.590;2022-10-31T00:23:27;5.70;;;4.03;;
7493;SDS011;3788;49.902;8.590;2022-10-31T00:25:59;4.60;;;4.03;;
7493;SDS011;3788;49.902;8.590;2022-10-31T00:28:26;4.83;;;4.10;;
7493;SDS011;3788;49.902;8.590;2022-10-31T00:30:57;4.40;;;3.80;;
7493;SDS011;3788;49.902;8.590;2022-10-31T00:33:24;5.40;;;4.33;;
7493;SDS011;3788;49.902;8.590;2022-10-31T00:35:53;4.87;;;4.10;;
7493;SDS011;3788;49.902;8.590;2022-10-31T00:38:20;4.93;;;4.10;;
7493;SDS011;3788;49.902;8.590;2022-10-31T00:40:49;5.17;;;4.37;;
7493;SDS011;3788;49.902;8.590;2022-10-31T00:43:16;4.30;;;3.90;;
7493;SDS011;3788;49.902;8.590;2022-10-31T00:45:43;6.33;;;4.20;;
7493;SDS011;3788;49.902;8.590;2022-10-31T00:48:10;5.57;;;3.97;;
7493;SDS011;3788;49.902;8.590;2022-10-31T00:50:37;4.87;;;4.20;;
7493;SDS011;3788;49.902;8.590;2022-10-31T00:53:04;6.77;;;4.87;;
7493;SDS011;3788;49.902;8.590;2022-10-31T00:55:31;6.03;;;4.47;;
7493;SDS011;3788;49.902;8.590;2022-10-31T00:58:00;5.07;;;4.40;;
7493;SDS011;3788;49.902;8.590;2022-10-31T01:00:26;7.57;;;4.93;;
7493;SDS011;3788;49.902;8.590;2022-10-31T01:02:54;6.77;;;4.57;;
7493;SDS011;3788;49.902;8.590;2022-10-31T01:05:20;9.67;;;4.83;;
7493;SDS011;3788;49.902;8.590;2022-10-31T01:07:47;6.37;;;5.57;;
7493;SDS011;3788;49.902;8.590;2022-10-31T01:10:15;7.23;;;5.70;;
7493;SDS011;3788;49.902;8.590;2022-10-31T01:12:43;6.67;;;4.77;;
7493;SDS011;3788;49.902;8.590;2022-10-31T01:15:13;6.80;;;5.50;;
7493;SDS011;3788;49.902;8.590;2022-10-31T01:17:43;7.20;;;5.00;;
7493;SDS011;3788;49.902;8.590;2022-10-31T01:20:11;7.70;;;5.07;;
7493;SDS011;3788;49.902;8.590;2022-10-31T01:22:39;6.53;;;4.97;;
7493;SDS011;3788;49.902;8.590;2022-10-31T01:25:06;6.93;;;5.37;;
7493;SDS011;3788;49.902;8.590;2022-10-31T01:27:35;7.47;;;4.70;;
7493;SDS011;3788;49.902;8.590;2022-10-31T01:30:02;7.23;;;5.47;;
7493;SDS011;3788;49.902;8.590;2022-10-31T01:32:31;7.63;;;5.10;;
7493;SDS011;3788;49.902;8.590;2022-10-31T01:34:58;6.13;;;4.80;;
7493;SDS011;3788;49.902;8.590;2022-10-31T01:37:25;6.10;;;5.17;;
7493;SDS011;3788;49.902;8.590;2022-10-31T01:39:52;6.10;;;4.80;;
7493;SDS011;3788;49.902;8.590;2022-10-31T01:42:19;5.60;;;4.47;;
7493;SDS011;3788;49.902;8.590;2022-10-31T01:44:49;4.77;;;4.30;;
7493;SDS011;3788;49.902;8.590;2022-10-31T01:47:19;5.43;;;4.30;;
7493;SDS011;3788;49.902;8.590;2022-10-31T01:49:56;4.43;;;3.97;;
7493;SDS011;3788;49.902;8.590;2022-10-31T01:52:27;6.27;;;3.93;;
7493;SDS011;3788;49.902;8.590;2022-10-31T01:54:58;4.97;;;4.00;;
7493;SDS011;3788;49.902;8.590;2022-10-31T01:57:27;4.53;;;3.40;;
7493;SDS011;3788;49.902;8.590;2022-10-31T01:59:56;6.37;;;4.33;;
7493;SDS011;3788;49.902;8.590;2022-10-31T02:02:25;6.23;;;3.90;;
7493;SDS011;3788;49.902;8.590;2022-10-31T02:04:56;5.30;;;4.47;;
7493;SDS011;3788;49.902;8.590;2022-10-31T02:07:26;6.20;;;3.90;;
7493;SDS011;3788;49.902;8.590;2022-10-31T02:09:59;6.20;;;4.80;;
7493;SDS011;3788;49.902;8.590;2022-10-31T02:12:28;5.63;;;3.80;;
7493;SDS011;3788;49.902;8.590;2022-10-31T02:14:57;4.83;;;3.90;;
7493;SDS011;3788;49.902;8.590;2022-10-31T02:17:26;5.23;;;3.83;;
7493;SDS011;3788;49.902;8.590;2022-10-31T02:19:56;6.13;;;4.17;;
7493;SDS011;3788;49.902;8.590;2022-10-31T02:22:33;4.80;;;4.10;;
7493;SDS011;3788;49.902;8.590;2022-10-31T02:25:13;5.20;;;4.43;;
7493;SDS011;3788;49.902;8.590;2022-10-31T02:28:05;4.40;;;4.00;;
7493;SDS011;3788;49.902;8.590;2022-10-31T02:30:57;5.13;;;4.00;;
7493;SDS011;3788;49.902;8.590;2022-10-31T02:33:33;5.07;;;3.87;;
7493;SDS011;3788;49.902;8.590;2022-10-31T02:36:08;5.30;;;4.40;;
7493;SDS011;3788;49.902;8.590;2022-10-31T02:38:43;7.03;;;4.10;;
7493;SDS011;3788;49.902;8.590;2022-10-31T02:41:18;4.73;;;4.30;;
7493;SDS011;3788;49.902;8.590;2022-10-31T02:43:59;4.50;;;4.10;;
7493;SDS011;3788;49.902;8.590;2022-10-31T02:46:34;5.60;;;4.30;;
7493;SDS011;3788;49.902;8.590;2022-10-31T02:49:05;4.80;;;4.23;;
7493;SDS011;3788;49.902;8.590;2022-10-31T02:51:35;5.33;;;4.53;;
7493;SDS011;3788;49.902;8.590;2022-10-31T02:54:02;6.33;;;4.73;;
7493;SDS011;3788;49.902;8.590;2022-10-31T02:56:28;4.33;;;3.73;;
7493;SDS011;3788;49.902;8.590;2022-10-31T02:58:56;5.27;;;4.27;;
7493;SDS011;3788;49.902;8.590;2022-10-31T03:01:36;4.70;;;4.30;;
7493;SDS011;3788;49.902;8.590;2022-10-31T03:04:23;5.23;;;4.37;;
7493;SDS011;3788;49.902;8.590;2022-10-31T03:07:15;4.33;;;3.93;;
7493;SDS011;3788;49.902;8.590;2022-10-31T03:09:49;6.30;;;4.37;;
7493;SDS011;3788;49.902;8.590;2022-10-31T03:12:22;5.10;;;4.27;;
7493;SDS011;3788;49.902;8.590;2022-10-31T03:14:56;4.13;;;3.80;;
7493;SDS011;3788;49.902;8.590;2022-10-31T03:17:36;6.47;;;4.60;;
7493;SDS011;3788;49.902;8.590;2022-10-31T03:20:08;6.73;;;4.00;;
7493;SDS011;3788;49.902;8.590;2022-10-31T03:22:37;4.77;;;3.73;;
7493;SDS011;3788;49.902;8.590;2022-10-31T03:25:06;5.40;;;4.20;;
7493;SDS011;3788;49.902;8.590;2022-10-31T03:27:34;4.87;;;4.37;;
7493;SDS011;3788;49.902;8.590;2022-10-31T03:30:04;6.03;;;4.70;;
7493;SDS011;3788;49.902;8.590;2022-10-31T03:32:34;5.87;;;4.20;;
7493;SDS011;3788;49.902;8.590;2022-10-31T03:35:04;8.57;;;4.90;;
7493;SDS011;3788;49.902;8.590;2022-10-31T03:37:34;5.30;;;4.40;;
7493;SDS011;3788;49.902;8.590;2022-10-31T03:40:03;5.63;;;4.43;;
7493;SDS011;3788;49.902;8.590;2022-10-31T03:42:34;6.20;;;4.90;;
7493;SDS011;3788;49.902;8.590;2022-10-31T03:45:05;6.13;;;4.27;;
7493;SDS011;3788;49.902;8.590;2022-10-31T03:47:38;5.90;;;4.00;;
7493;SDS011;3788;49.902;8.590;2022-10-31T03:50:06;6.30;;;4.40;;
7493;SDS011;3788;49.902;8.590;2022-10-31T03:52:36;4.50;;;3.93;;
7493;SDS011;3788;49.902;8.590;2022-10-31T03:55:09;8.07;;;4.73;;
7493;SDS011;3788;49.902;8.590;2022-10-31T03:57:39;4.90;;;3.97;;
7493;SDS011;3788;49.902;8.590;2022-10-31T04:00:12;5.93;;;4.10;;
7493;SDS011;3788;49.902;8.590;2022-10-31T04:02:43;5.10;;;4.07;;
7493;SDS011;3788;49.902;8.590;2022-10-31T04:05:14;4.57;;;4.10;;
7493;SDS011;3788;49.902;8.590;2022-10-31T04:07:44;5.40;;;4.43;;
7493;SDS011;3788;49.902;8.590;2022-10-31T04:10:15;4.10;;;3.63;;
7493;SDS011;3788;49.902;8.590;2022-10-31T04:12:43;3.80;;;3.30;;
7493;SDS011;3788;49.902;8.590;2022-10-31T04:15:15;4.33;;;3.40;;
7493;SDS011;3788;49.902;8.590;2022-10-31T04:17:43;8.43;;;4.30;;
7493;SDS011;3788;49.902;8.590;2022-10-31T04:20:15;5.30;;;3.70;;
7493;SDS011;3788;49.902;8.590;2022-10-31T04:22:42;3.90;;;3.50;;
7493;SDS011;3788;49.902;8.590;2022-10-31T04:25:09;6.00;;;4.40;;
7493;SDS011;3788;49.902;8.590;2022-10-31T04:27:36;5.37;;;4.50;;
7493;SDS011;3788;49.902;8.590;2022-10-31T04:30:03;6.03;;;3.83;;
7493;SDS011;3788;49.902;8.590;2022-10-31T04:32:31;4.80;;;3.80;;
7493;SDS011;3788;49.902;8.590;2022-10-31T04:34:59;5.83;;;4.27;;
7493;SDS011;3788;49.902;8.590;2022-10-31T04:37:26;5.13;;;3.53;;
7493;SDS011;3788;49.902;8.590;2022-10-31T04:39:53;4.20;;;3.83;;
7493;SDS011;3788;49.902;8.590;2022-10-31T04:42:19;4.73;;;3.90;;
7493;SDS011;3788;49.902;8.590;2022-10-31T04:44:46;4.43;;;4.03;;
7493;SDS011;3788;49.902;8.590;2022-10-31T04:47:13;5.40;;;4.20;;
7493;SDS011;3788;49.902;8.590;2022-10-31T04:49:39;5.40;;;4.40;;
7493;SDS011;3788;49.902;8.590;2022-10-31T04:52:07;5.97;;;4.67;;
7493;SDS011;3788;49.902;8.590;2022-10-31T04:54:34;6.13;;;5.27;;
7493;SDS011;3788;49.902;8.590;2022-10-31T04:57:01;6.67;;;4.93;;
7493;SDS011;3788;49.902;8.590;2022-10-31T04:59:27;6.90;;;4.33;;
7493;SDS011;3788;49.902;8.590;2022-10-31T05:01:54;5.57;;;4.67;;
7493;SDS011;3788;49.902;8.590;2022-10-31T05:04:21;5.83;;;4.60;;
7493;SDS011;3788;49.902;8.590;2022-10-31T05:06:48;6.33;;;4.83;;
7493;SDS011;3788;49.902;8.590;2022-10-31T05:09:16;5.80;;;4.57;;
7493;SDS011;3788;49.902;8.590;2022-10-31T05:11:43;6.23;;;4.67;;
7493;SDS011;3788;49.902;8.590;2022-10-31T05:14:10;6.80;;;4.77;;
7493;SDS011;3788;49.902;8.590;2022-10-31T05:16:37;5.43;;;4.67;;
7493;SDS011;3788;49.902;8.590;2022-10-31T05:19:04;5.80;;;4.70;;
7493;SDS011;3788;49.902;8.590;2022-10-31T05:21:31;5.47;;;4.57;;
7493;SDS011;3788;49.902;8.590;2022-10-31T05:23:58;6.70;;;4.80;;
7493;SDS011;3788;49.902;8.590;2022-10-31T05:26:26;6.03;;;4.50;;
7493;SDS011;3788;49.902;8.590;2022-10-31T05:28:52;6.43;;;5.03;;
7493;SDS011;3788;49.902;8.590;2022-10-31T05:31:19;5.00;;;4.50;;
7493;SDS011;3788;49.902;8.590;2022-10-31T05:33:46;7.83;;;5.23;;
7493;SDS011;3788;49.902;8.590;2022-10-31T05:36:12;8.47;;;5.10;;
7493;SDS011;3788;49.902;8.590;2022-10-31T05:38:39;5.70;;;4.43;;
7493;SDS011;3788;49.902;8.590;2022-10-31T05:41:06;4.63;;;3.93;;
7493;SDS011;3788;49.902;8.590;2022-10-31T05:43:35;6.67;;;4.57;;
7493;SDS011;3788;49.902;8.590;2022-10-31T05:46:02;5.43;;;4.57;;
7493;SDS011;3788;49.902;8.590;2022-10-31T05:48:29;6.07;;;4.67;;
7493;SDS011;3788;49.902;8.590;2022-10-31T05:50:55;6.10;;;4.40;;
7493;SDS011;3788;49.902;8.590;2022-10-31T05:53:23;5.13;;;4.50;;
7493;SDS011;3788;49.902;8.590;2022-10-31T05:55:50;4.70;;;4.20;;
7493;SDS011;3788;49.902;8.590;2022-10-31T05:58:17;4.83;;;4.30;;
7493;SDS011;3788;49.902;8.590;2022-10-31T06:00:45;4.67;;;4.20;;
7493;SDS011;3788;49.902;8.590;2022-10-31T06:03:12;5.07;;;4.57;;
7493;SDS011;3788;49.902;8.590;2022-10-31T06:05:39;6.10;;;4.00;;
7493;SDS011;3788;49.902;8.590;2022-10-31T06:08:06;5.77;;;4.37;;
7493;SDS011;3788;49.902;8.590;2022-10-31T06:10:32;5.50;;;4.67;;
7493;SDS011;3788;49.902;8.590;2022-10-31T06:12:59;7.17;;;4.83;;
7493;SDS011;3788;49.902;8.590;2022-10-31T06:15:26;7.53;;;4.67;;
7493;SDS011;3788;49.902;8.590;2022-10-31T06:18:01;6.90;;;5.47;;
7493;SDS011;3788;49.902;8.590;2022-10-31T06:20:29;6.53;;;4.37;;
7493;SDS011;3788;49.902;8.590;2022-10-31T06:22:57;6.93;;;5.60;;
7493;SDS011;3788;49.902;8.590;2022-10-31T06:25:24;6.83;;;4.73;;
7493;SDS011;3788;49.902;8.590;2022-10-31T06:27:51;5.37;;;4.80;;
7493;SDS011;3788;49.902;8.590;2022-10-31T06:30:18;5.53;;;4.40;;
7493;SDS011;3788;49.902;8.590;2022-10-31T06:32:44;4.67;;;4.20;;
7493;SDS011;3788;49.902;8.590;2022-10-31T06:35:13;5.27;;;4.23;;
7493;SDS011;3788;49.902;8.590;2022-10-31T06:37:39;5.47;;;4.70;;
7493;SDS011;3788;49.902;8.590;2022-10-31T06:40:07;4.60;;;4.03;;
7493;SDS011;3788;49.902;8.590;2022-10-31T06:42:34;5.20;;;4.23;;
7493;SDS011;3788;49.902;8.590;2022-10-31T06:45:01;4.93;;;3.90;;
7493;SDS011;3788;49.902;8.590;2022-10-31T06:47:28;7.53;;;5.13;;
7493;SDS011;3788;49.902;8.590;2022-10-31T06:49:55;6.13;;;4.72;;
7493;SDS011;3788;49.902;8.590;2022-10-31T06:52:23;5.17;;;4.00;;
7493;SDS011;3788;49.902;8.590;2022-10-31T06:54:50;4.93;;;4.43;;
7493;SDS011;3788;49.902;8.590;2022-10-31T06:57:16;4.37;;;3.97;;
7493;SDS011;3788;49.902;8.590;2022-10-31T06:59:43;5.53;;;4.53;;
7493;SDS011;3788;49.902;8.590;2022-10-31T07:02:10;8.07;;;4.70;;
7493;SDS011;3788;49.902;8.590;2022-10-31T07:04:37;6.00;;;4.57;;
7493;SDS011;3788;49.902;8.590;2022-10-31T07:07:04;6.40;;;5.20;;
7493;SDS011;3788;49.902;8.590;2022-10-31T07:09:32;5.17;;;4.50;;
7493;SDS011;3788;49.902;8.590;2022-10-31T07:11:59;6.73;;;4.80;;
7493;SDS011;3788;49.902;8.590;2022-10-31T07:14:27;6.10;;;4.73;;
7493;SDS011;3788;49.902;8.590;2022-10-31T07:16:54;5.53;;;4.37;;
7493;SDS011;3788;49.902;8.590;2022-10-31T07:19:21;6.07;;;4.60;;
7493;SDS011;3788;49.902;8.590;2022-10-31T07:21:48;6.90;;;4.80;;
7493;SDS011;3788;49.902;8.590;2022-10-31T07:24:15;8.67;;;4.43;;
7493;SDS011;3788;49.902;8.590;2022-10-31T07:26:43;4.10;;;3.70;;
7493;SDS011;3788;49.902;8.590;2022-10-31T07:29:12;3.97;;;3.53;;
7493;SDS011;3788;49.902;8.590;2022-10-31T07:31:39;4.87;;;3.83;;
7493;SDS011;3788;49.902;8.590;2022-10-31T07:34:06;5.20;;;4.07;;
7493;SDS011;3788;49.902;8.590;2022-10-31T07:36:32;5.47;;;4.40;;
7493;SDS011;3788;49.902;8.590;2022-10-31T07:38:59;4.77;;;4.03;;
7493;SDS011;3788;49.902;8.590;2022-10-31T07:41:27;5.40;;;4.60;;
7493;SDS011;3788;49.902;8.590;2022-10-31T07:44:01;7.20;;;4.47;;
7493;SDS011;3788;49.902;8.590;2022-10-31T07:46:28;5.63;;;3.90;;
7493;SDS011;3788;49.902;8.590;2022-10-31T07:48:55;5.53;;;3.70;;
7493;SDS011;3788;49.902;8.590;2022-10-31T07:51:22;5.13;;;4.37;;
7493;SDS011;3788;49.902;8.590;2022-10-31T07:53:58;5.07;;;4.53;;
7493;SDS011;3788;49.902;8.590;2022-10-31T07:56:26;4.60;;;3.93;;
7493;SDS011;3788;49.902;8.590;2022-10-31T07:58:52;4.50;;;4.10;;
7493;SDS011;3788;49.902;8.590;2022-10-31T08:01:21;3.53;;;3.17;;
7493;SDS011;3788;49.902;8.590;2022-10-31T08:03:47;4.80;;;3.50;;
7493;SDS011;3788;49.902;8.590;2022-10-31T08:06:17;3.97;;;3.60;;
7493;SDS011;3788;49.902;8.590;2022-10-31T08:08:45;4.90;;;3.60;;
7493;SDS011;3788;49.902;8.590;2022-10-31T08:11:13;5.17;;;3.47;;
7493;SDS011;3788;49.902;8.590;2022-10-31T08:13:40;6.00;;;3.80;;
7493;SDS011;3788;49.902;8.590;2022-10-31T08:16:07;6.53;;;3.97;;
7493;SDS011;3788;49.902;8.590;2022-10-31T08:18:37;5.23;;;3.90;;
7493;SDS011;3788;49.902;8.590;2022-10-31T08:21:04;5.63;;;3.80;;
7493;SDS011;3788;49.902;8.590;2022-10-31T08:23:31;6.63;;;3.53;;
7493;SDS011;3788;49.902;8.590;2022-10-31T08:25:58;4.70;;;3.87;;
7493;SDS011;3788;49.902;8.590;2022-10-31T08:28:25;5.00;;;3.80;;
7493;SDS011;3788;49.902;8.590;2022-10-31T08:30:51;5.73;;;4.10;;
7493;SDS011;3788;49.902;8.590;2022-10-31T08:33:18;4.53;;;3.70;;
7493;SDS011;3788;49.902;8.590;2022-10-31T08:35:46;5.40;;;4.63;;
7493;SDS011;3788;49.902;8.590;2022-10-31T08:38:13;7.07;;;4.30;;
7493;SDS011;3788;49.902;8.590;2022-10-31T08:40:40;4.73;;;3.70;;
7493;SDS011;3788;49.902;8.590;2022-10-31T08:43:10;4.73;;;3.93;;
7493;SDS011;3788;49.902;8.590;2022-10-31T08:45:38;4.00;;;3.60;;
7493;SDS011;3788;49.902;8.590;2022-10-31T08:48:05;4.10;;;3.67;;
7493;SDS011;3788;49.902;8.590;2022-10-31T08:50:35;4.40;;;3.43;;
7493;SDS011;3788;49.902;8.590;2022-10-31T08:53:04;4.73;;;3.90;;
7493;SDS011;3788;49.902;8.590;2022-10-31T08:55:33;3.73;;;3.30;;
7493;SDS011;3788;49.902;8.590;2022-10-31T08:58:00;5.00;;;3.97;;
7493;SDS011;3788;49.902;8.590;2022-10-31T09:00:27;4.40;;;3.60;;
7493;SDS011;3788;49.902;8.590;2022-10-31T09:02:54;5.07;;;3.53;;
7493;SDS011;3788;49.902;8.590;2022-10-31T09:05:22;4.40;;;3.90;;
7493;SDS011;3788;49.902;8.590;2022-10-31T09:07:49;4.97;;;3.93;;
7493;SDS011;3788;49.902;8.590;2022-10-31T09:10:18;5.97;;;3.87;;
7493;SDS011;3788;49.902;8.590;2022-10-31T09:12:44;4.47;;;4.07;;
7493;SDS011;3788;49.902;8.590;2022-10-31T09:15:11;6.53;;;4.23;;
7493;SDS011;3788;49.902;8.590;2022-10-31T09:17:38;4.90;;;3.40;;
7493;SDS011;3788;49.902;8.590;2022-10-31T09:20:05;4.83;;;4.23;;
7493;SDS011;3788;49.902;8.590;2022-10-31T09:22:32;4.27;;;3.87;;
7493;SDS011;3788;49.902;8.590;2022-10-31T09:24:58;6.17;;;3.90;;
7493;SDS011;3788;49.902;8.590;2022-10-31T09:27:26;5.87;;;4.30;;
7493;SDS011;3788;49.902;8.590;2022-10-31T09:29:53;5.07;;;4.00;;
7493;SDS011;3788;49.902;8.590;2022-10-31T09:32:20;5.70;;;4.07;;
7493;SDS011;3788;49.902;8.590;2022-10-31T09:34:47;7.20;;;4.33;;
7493;SDS011;3788;49.902;8.590;2022-10-31T09:37:13;7.40;;;5.00;;
7493;SDS011;3788;49.902;8.590;2022-10-31T09:39:40;6.90;;;4.63;;
7493;SDS011;3788;49.902;8.590;2022-10-31T09:45:10;5.23;;;4.47;;
7493;SDS011;3788;49.902;8.590;2022-10-31T09:47:45;6.37;;;4.87;;
7493;SDS011;3788;49.902;8.590;2022-10-31T09:50:21;5.43;;;4.27;;
7493;SDS011;3788;49.902;8.590;2022-10-31T09:52:53;7.77;;;5.00;;
7493;SDS011;3788;49.902;8.590;2022-10-31T09:55:31;7.87;;;4.57;;
7493;SDS011;3788;49.902;8.590;2022-10-31T09:58:03;6.23;;;4.90;;
7493;SDS011;3788;49.902;8.590;2022-10-31T10:00:32;5.40;;;4.67;;
7493;SDS011;3788;49.902;8.590;2022-10-31T10:03:03;5.93;;;4.53;;
7493;SDS011;3788;49.902;8.590;2022-10-31T10:05:43;7.80;;;4.80;;
7493;SDS011;3788;49.902;8.590;2022-10-31T10:08:18;6.40;;;4.87;;
7493;SDS011;3788;49.902;8.590;2022-10-31T10:10:48;8.13;;;4.47;;
7493;SDS011;3788;49.902;8.590;2022-10-31T10:13:28;6.23;;;4.97;;
7493;SDS011;3788;49.902;8.590;2022-10-31T10:16:09;5.00;;;4.20;;
7493;SDS011;3788;49.902;8.590;2022-10-31T10:19:00;9.03;;;4.67;;
7493;SDS011;3788;49.902;8.590;2022-10-31T10:21:38;5.20;;;4.40;;
7493;SDS011;3788;49.902;8.590;2022-10-31T10:24:15;5.37;;;4.40;;
7493;SDS011;3788;49.902;8.590;2022-10-31T10:26:50;5.90;;;4.40;;
7493;SDS011;3788;49.902;8.590;2022-10-31T10:29:29;7.13;;;4.97;;
7493;SDS011;3788;49.902;8.590;2022-10-31T10:32:02;6.77;;;4.47;;
7493;SDS011;3788;49.902;8.590;2022-10-31T10:34:36;6.13;;;4.13;;
7493;SDS011;3788;49.902;8.590;2022-10-31T10:37:08;5.27;;;4.53;;
7493;SDS011;3788;49.902;8.590;2022-10-31T10:39:44;7.20;;;4.80;;
7493;SDS011;3788;49.902;8.590;2022-10-31T10:42:15;5.30;;;4.80;;
7493;SDS011;3788;49.902;8.590;2022-10-31T10:45:00;6.03;;;4.60;;
7493;SDS011;3788;49.902;8.590;2022-10-31T10:47:59;8.33;;;5.20;;
7493;SDS011;3788;49.902;8.590;2022-10-31T10:50:34;5.30;;;4.80;;
7493;SDS011;3788;49.902;8.590;2022-10-31T10:53:06;5.57;;;5.07;;
7493;SDS011;3788;49.902;8.590;2022-10-31T10:55:48;5.83;;;4.40;;
7493;SDS011;3788;49.902;8.590;2022-10-31T10:58:20;4.87;;;4.37;;
7493;SDS011;3788;49.902;8.590;2022-10-31T11:00:47;6.33;;;4.80;;
7493;SDS011;3788;49.902;8.590;2022-10-31T11:03:22;4.63;;;4.23;;
7493;SDS011;3788;49.902;8.590;2022-10-31T11:05:50;5.93;;;4.40;;
7493;SDS011;3788;49.902;8.590;2022-10-31T11:08:24;7.47;;;4.37;;
7493;SDS011;3788;49.902;8.590;2022-10-31T11:10:56;6.30;;;4.47;;
7493;SDS011;3788;49.902;8.590;2022-10-31T11:13:27;5.50;;;4.60;;
7493;SDS011;3788;49.902;8.590;2022-10-31T11:15:59;6.10;;;4.43;;
7493;SDS011;3788;49.902;8.590;2022-10-31T11:18:29;6.03;;;4.47;;
7493;SDS011;3788;49.902;8.590;2022-10-31T11:20:59;4.70;;;4.20;;
7493;SDS011;3788;49.902;8.590;2022-10-31T11:23:28;4.40;;;4.00;;
7493;SDS011;3788;49.902;8.590;2022-10-31T11:25:56;6.80;;;4.23;;
7493;SDS011;3788;49.902;8.590;2022-10-31T11:28:23;5.13;;;4.33;;
7493;SDS011;3788;49.902;8.590;2022-10-31T11:30:52;5.03;;;4.50;;
7493;SDS011;3788;49.902;8.590;2022-10-31T11:33:22;8.67;;;4.40;;
7493;SDS011;3788;49.902;8.590;2022-10-31T11:35:53;6.77;;;4.70;;
7493;SDS011;3788;49.902;8.590;2022-10-31T11:38:21;5.40;;;4.50;;
7493;SDS011;3788;49.902;8.590;2022-10-31T11:40:51;4.97;;;3.80;;
7493;SDS011;3788;49.902;8.590;2022-10-31T11:43:20;5.17;;;4.00;;
7493;SDS011;3788;49.902;8.590;2022-10-31T11:45:48;5.43;;;3.90;;
7493;SDS011;3788;49.902;8.590;2022-10-31T11:48:16;5.90;;;4.20;;
7493;SDS011;3788;49.902;8.590;2022-10-31T11:50:47;6.07;;;4.37;;
7493;SDS011;3788;49.902;8.590;2022-10-31T11:53:18;5.40;;;3.70;;
7493;SDS011;3788;49.902;8.590;2022-10-31T11:55:48;4.60;;;3.67;;
7493;SDS011;3788;49.902;8.590;2022-10-31T11:58:32;4.80;;;3.97;;
7493;SDS011;3788;49.902;8.590;2022-10-31T12:00:59;4.80;;;4.13;;
7493;SDS011;3788;49.902;8.590;2022-10-31T12:03:33;4.83;;;3.90;;
7493;SDS011;3788;49.902;8.590;2022-10-31T12:06:08;4.67;;;3.90;;
7493;SDS011;3788;49.902;8.590;2022-10-31T12:08:40;4.57;;;3.37;;
7493;SDS011;3788;49.902;8.590;2022-10-31T12:11:10;4.40;;;3.37;;
7493;SDS011;3788;49.902;8.590;2022-10-31T12:13:48;5.07;;;3.97;;
7493;SDS011;3788;49.902;8.590;2022-10-31T12:16:25;3.63;;;3.33;;
7493;SDS011;3788;49.902;8.590;2022-10-31T12:18:57;4.20;;;3.80;;
7493;SDS011;3788;49.902;8.590;2022-10-31T12:21:34;5.13;;;3.80;;
7493;SDS011;3788;49.902;8.590;2022-10-31T12:24:27;5.03;;;4.53;;
7493;SDS011;3788;49.902;8.590;2022-10-31T12:27:04;6.30;;;4.17;;
7493;SDS011;3788;49.902;8.590;2022-10-31T12:29:44;5.00;;;3.60;;
7493;SDS011;3788;49.902;8.590;2022-10-31T12:32:23;5.70;;;4.13;;
7493;SDS011;3788;49.902;8.590;2022-10-31T12:35:05;5.97;;;4.10;;
7493;SDS011;3788;49.902;8.590;2022-10-31T12:38:04;5.57;;;3.67;;
7493;SDS011;3788;49.902;8.590;2022-10-31T12:40:47;5.10;;;3.80;;
7493;SDS011;3788;49.902;8.590;2022-10-31T12:43:28;6.13;;;4.07;;
7493;SDS011;3788;49.902;8.590;2022-10-31T12:46:03;4.33;;;3.73;;
7493;SDS011;3788;49.902;8.590;2022-10-31T12:48:39;5.67;;;3.77;;
7493;SDS011;3788;49.902;8.590;2022-10-31T12:51:20;6.30;;;4.43;;
7493;SDS011;3788;49.902;8.590;2022-10-31T12:54:02;5.57;;;3.97;;
7493;SDS011;3788;49.902;8.590;2022-10-31T12:56:45;4.77;;;3.90;;
7493;SDS011;3788;49.902;8.590;2022-10-31T12:59:17;5.20;;;3.93;;
7493;SDS011;3788;49.902;8.590;2022-10-31T13:01:50;7.23;;;4.43;;
7493;SDS011;3788;49.902;8.590;2022-10-31T13:04:21;4.90;;;3.70;;
7493;SDS011;3788;49.902;8.590;2022-10-31T13:06:59;5.60;;;3.70;;
7493;SDS011;3788;49.902;8.590;2022-10-31T13:09:30;5.80;;;3.93;;
7493;SDS011;3788;49.902;8.590;2022-10-31T13:12:04;5.80;;;4.10;;
7493;SDS011;3788;49.902;8.590;2022-10-31T13:14:36;5.93;;;4.20;;
7493;SDS011;3788;49.902;8.590;2022-10-31T13:17:06;6.40;;;4.27;;
7493;SDS011;3788;49.902;8.590;2022-10-31T13:19:44;4.57;;;3.90;;
7493;SDS011;3788;49.902;8.590;2022-10-31T13:22:13;5.03;;;3.77;;
7493;SDS011;3788;49.902;8.590;2022-10-31T13:24:46;5.53;;;3.40;;
7493;SDS011;3788;49.902;8.590;2022-10-31T13:27:21;3.53;;;3.23;;
7493;SDS011;3788;49.902;8.590;2022-10-31T13:29:53;3.70;;;3.40;;
7493;SDS011;3788;49.902;8.590;2022-10-31T13:32:26;4.07;;;3.40;;
7493;SDS011;3788;49.902;8.590;2022-10-31T13:34:56;4.50;;;3.50;;
7493;SDS011;3788;49.902;8.590;2022-10-31T13:37:27;3.53;;;3.23;;
7493;SDS011;3788;49.902;8.590;2022-10-31T13:40:05;4.17;;;2.90;;
7493;SDS011;3788;49.902;8.590;2022-10-31T13:42:48;4.17;;;3.37;;
7493;SDS011;3788;49.902;8.590;2022-10-31T13:45:23;3.57;;;3.20;;
7493;SDS011;3788;49.902;8.590;2022-10-31T13:47:55;4.73;;;3.53;;
7493;SDS011;3788;49.902;8.590;2022-10-31T13:50:24;4.83;;;3.53;;
7493;SDS011;3788;49.902;8.590;2022-10-31T13:52:52;3.83;;;3.30;;
7493;SDS011;3788;49.902;8.590;2022-10-31T13:55:38;7.50;;;3.87;;
7493;SDS011;3788;49.902;8.590;2022-10-31T13:58:21;5.53;;;3.53;;
7493;SDS011;3788;49.902;8.590;2022-10-31T14:00:59;3.50;;;3.20;;
7493;SDS011;3788;49.902;8.590;2022-10-31T14:03:38;3.87;;;3.30;;
7493;SDS011;3788;49.902;8.590;2022-10-31T14:06:05;5.03;;;3.17;;
7493;SDS011;3788;49.902;8.590;2022-10-31T14:08:35;5.13;;;3.57;;
7493;SDS011;3788;49.902;8.590;2022-10-31T14:11:04;6.13;;;3.50;;
7493;SDS011;3788;49.902;8.590;2022-10-31T14:13:35;3.57;;;3.27;;
7493;SDS011;3788;49.902;8.590;2022-10-31T14:16:07;3.53;;;3.20;;
7493;SDS011;3788;49.902;8.590;2022-10-31T14:18:45;3.47;;;3.13;;
7493;SDS011;3788;49.902;8.590;2022-10-31T14:21:25;4.07;;;2.80;;
7493;SDS011;3788;49.902;8.590;2022-10-31T14:23:54;3.77;;;3.47;;
7493;SDS011;3788;49.902;8.590;2022-10-31T14:26:32;5.20;;;3.13;;
7493;SDS011;3788;49.902;8.590;2022-10-31T14:29:02;4.07;;;2.90;;
7493;SDS011;3788;49.902;8.590;2022-10-31T14:31:44;3.83;;;3.13;;
7493;SDS011;3788;49.902;8.590;2022-10-31T14:34:19;6.40;;;3.40;;
7493;SDS011;3788;49.902;8.590;2022-10-31T14:36:51;3.73;;;3.07;;
7493;SDS011;3788;49.902;8.590;2022-10-31T14:39:30;3.80;;;3.13;;
7493;SDS011;3788;49.902;8.590;2022-10-31T14:42:06;4.47;;;3.13;;
7493;SDS011;3788;49.902;8.590;2022-10-31T14:47:50;3.17;;;2.90;;
7493;SDS011;3788;49.902;8.590;2022-10-31T14:50:41;7.30;;;3.53;;
7493;SDS011;3788;49.902;8.590;2022-10-31T14:53:13;4.47;;;3.10;;
7493;SDS011;3788;49.902;8.590;2022-10-31T14:55:46;3.80;;;3.20;;
7493;SDS011;3788;49.902;8.590;2022-10-31T14:58:17;3.20;;;2.90;;
7493;SDS011;3788;49.902;8.590;2022-10-31T15:01:03;3.07;;;2.80;;
7493;SDS011;3788;49.902;8.590;2022-10-31T15:03:32;4.50;;;3.53;;
7493;SDS011;3788;49.902;8.590;2022-10-31T15:06:02;3.23;;;2.90;;
7493;SDS011;3788;49.902;8.590;2022-10-31T15:08:33;5.17;;;3.50;;
7493;SDS011;3788;49.902;8.590;2022-10-31T15:11:09;4.33;;;3.40;;
7493;SDS011;3788;49.902;8.590;2022-10-31T15:13:40;3.83;;;3.43;;
7493;SDS011;3788;49.902;8.590;2022-10-31T15:16:09;3.13;;;2.83;;
7493;SDS011;3788;49.902;8.590;2022-10-31T15:18:44;4.07;;;3.10;;
7493;SDS011;3788;49.902;8.590;2022-10-31T15:21:14;3.60;;;3.20;;
7493;SDS011;3788;49.902;8.590;2022-10-31T15:23:42;3.20;;;2.87;;
7493;SDS011;3788;49.902;8.590;2022-10-31T15:26:11;3.50;;;3.03;;
7493;SDS011;3788;49.902;8.590;2022-10-31T15:28:44;3.30;;;3.00;;
7493;SDS011;3788;49.902;8.590;2022-10-31T15:31:15;3.97;;;3.17;;
7493;SDS011;3788;49.902;8.590;2022-10-31T15:33:45;4.40;;;2.93;;
7493;SDS011;3788;49.902;8.590;2022-10-31T15:36:19;4.37;;;3.20;;
7493;SDS011;3788;49.902;8.590;2022-10-31T15:38:48;3.50;;;3.20;;
7493;SDS011;3788;49.902;8.590;2022-10-31T15:41:21;3.50;;;2.80;;
7493;SDS011;3788;49.902;8.590;2022-10-31T15:43:53;4.67;;;3.60;;